createdAt,value
2023-01-19T00:00:30.202Z,96199.53
2023-01-19T00:02:56.788Z,96198.78
2023-01-19T00:05:23.262Z,96202.97
2023-01-19T00:07:49.716Z,96206.34
2023-01-19T00:10:16.656Z,96214.22
2023-01-19T00:12:43.103Z,96209.28
2023-01-19T00:15:10.138Z,96216.34
2023-01-19T00:17:36.597Z,96212.06
2023-01-19T00:20:03.960Z,96205.22
2023-01-19T00:22:30.493Z,96210.50
2023-01-19T00:24:57.043Z,96211.28
2023-01-19T00:27:23.476Z,96212.56
2023-01-19T00:29:49.951Z,96212.94
2023-01-19T00:32:17.847Z,96217.13
2023-01-19T00:34:49.524Z,96215.91
2023-01-19T00:37:17.131Z,96214.53
2023-01-19T00:39:43.809Z,96227.25
2023-01-19T00:42:32.438Z,96225.81
2023-01-19T00:44:59.001Z,96228.78
2023-01-19T00:47:25.750Z,96230.44
2023-01-19T00:49:52.272Z,96232.22
2023-01-19T00:52:18.773Z,96225.72
2023-01-19T00:54:45.237Z,96225.91
2023-01-19T00:57:12.196Z,96222.91
2023-01-19T00:59:38.730Z,96225.84
2023-01-19T01:02:05.390Z,96224.44
2023-01-19T01:04:32.148Z,96222.97
2023-01-19T01:06:58.613Z,96227.91
2023-01-19T01:09:25.062Z,96233.72
2023-01-19T01:11:51.478Z,96226.56
2023-01-19T01:14:18.133Z,96233.97
2023-01-19T01:16:44.913Z,96231.50
2023-01-19T01:19:11.402Z,96228.69
2023-01-19T01:21:37.859Z,96234.38
2023-01-19T01:24:04.952Z,96234.31
2023-01-19T01:26:31.446Z,96240.19
2023-01-19T01:28:57.992Z,96237.72
2023-01-19T01:31:24.764Z,96242.94
2023-01-19T01:33:51.263Z,96239.97
2023-01-19T01:36:18.991Z,96241.78
2023-01-19T01:38:45.475Z,96243.25
2023-01-19T01:41:12.353Z,96246.19
2023-01-19T01:43:58.332Z,96238.41
2023-01-19T01:46:26.760Z,96238.47
2023-01-19T01:49:05.364Z,96239.31
2023-01-19T01:51:39.177Z,96236.84
2023-01-19T01:54:29.140Z,96242.50
2023-01-19T01:57:00.243Z,96240.13
2023-01-19T01:59:34.681Z,96236.59
2023-01-19T02:02:24.753Z,96231.13
2023-01-19T02:04:56.324Z,96234.75
2023-01-19T02:07:46.396Z,96243.66
2023-01-19T02:10:31.646Z,96242.38
2023-01-19T02:13:17.004Z,96242.53
2023-01-19T02:15:44.093Z,96244.00
2023-01-19T02:18:10.829Z,96237.31
2023-01-19T02:20:40.903Z,96235.78
2023-01-19T02:23:18.349Z,96237.91
2023-01-19T02:25:45.217Z,96234.72
2023-01-19T02:28:11.984Z,96234.56
2023-01-19T02:30:41.026Z,96238.72
2023-01-19T02:33:07.533Z,96236.25
2023-01-19T02:35:37.917Z,96239.44
2023-01-19T02:38:06.376Z,96234.59
2023-01-19T02:40:33.128Z,96237.22
2023-01-19T02:43:01.374Z,96234.59
2023-01-19T02:45:28.525Z,96238.94
2023-01-19T02:47:54.983Z,96226.13
2023-01-19T02:50:56.767Z,96238.25
2023-01-19T02:53:49.879Z,96237.97
2023-01-19T02:56:35.953Z,96240.56
2023-01-19T02:59:15.542Z,96239.84
2023-01-19T03:01:47.913Z,96238.38
2023-01-19T03:04:40.653Z,96236.38
2023-01-19T03:07:17.157Z,96238.03
2023-01-19T03:09:59.025Z,96235.56
2023-01-19T03:12:39.659Z,96244.09
2023-01-19T03:15:17.273Z,96250.16
2023-01-19T03:17:48.394Z,96248.16
2023-01-19T03:20:18.812Z,96250.31
2023-01-19T03:22:46.839Z,96255.00
2023-01-19T03:25:15.093Z,96253.78
2023-01-19T03:27:44.688Z,96253.47
2023-01-19T03:30:15.881Z,96248.97
2023-01-19T03:32:51.746Z,96245.47
2023-01-19T03:35:21.854Z,96248.16
2023-01-19T03:37:52.927Z,96248.16
2023-01-19T03:40:19.534Z,96248.81
2023-01-19T03:42:47.598Z,96251.41
2023-01-19T03:45:14.833Z,96245.84
2023-01-19T03:47:41.856Z,96252.22
2023-01-19T03:50:16.845Z,96246.13
2023-01-19T03:52:43.929Z,96250.13
2023-01-19T03:55:10.509Z,96249.03
2023-01-19T03:57:37.430Z,96252.66
2023-01-19T04:00:04.716Z,96256.06
2023-01-19T04:02:38.416Z,96266.56
2023-01-19T04:05:05.239Z,96261.16
2023-01-19T04:07:31.987Z,96269.56
2023-01-19T04:09:58.414Z,96268.59
2023-01-19T04:12:24.869Z,96267.91
2023-01-19T04:14:51.341Z,96269.25
2023-01-19T04:17:17.917Z,96275.50
2023-01-19T04:19:45.133Z,96277.81
2023-01-19T04:22:11.592Z,96279.16
2023-01-19T04:24:38.093Z,96280.31
2023-01-19T04:27:04.647Z,96278.69
2023-01-19T04:29:31.073Z,96282.41
2023-01-19T04:31:57.683Z,96277.97
2023-01-19T04:34:24.124Z,96279.09
2023-01-19T04:36:51.449Z,96277.63
2023-01-19T04:39:18.134Z,96276.91
2023-01-19T04:41:44.586Z,96281.19
2023-01-19T04:44:11.216Z,96274.50
2023-01-19T04:46:37.697Z,96275.97
2023-01-19T04:49:04.180Z,96276.09
2023-01-19T04:51:30.723Z,96274.84
2023-01-19T04:53:57.764Z,96275.00
2023-01-19T04:56:24.280Z,96275.69
2023-01-19T04:58:50.752Z,96279.38
2023-01-19T05:01:17.405Z,96279.22
2023-01-19T05:03:43.885Z,96278.09
2023-01-19T05:06:10.378Z,96278.38
2023-01-19T05:08:36.830Z,96279.78
2023-01-19T05:11:03.384Z,96282.59
2023-01-19T05:13:29.897Z,96281.25
2023-01-19T05:15:56.367Z,96289.56
2023-01-19T05:18:22.849Z,96287.47
2023-01-19T05:20:49.385Z,96286.91
2023-01-19T05:23:15.785Z,96300.09
2023-01-19T05:25:42.904Z,96297.44
2023-01-19T05:28:09.485Z,96301.16
2023-01-19T05:30:36.209Z,96295.78
2023-01-19T05:33:03.214Z,96300.19
2023-01-19T05:35:35.692Z,96301.53
2023-01-19T05:38:02.901Z,96292.84
2023-01-19T05:40:29.324Z,96300.25
2023-01-19T05:42:59.922Z,96310.16
2023-01-19T05:45:29.737Z,96310.63
2023-01-19T05:47:56.476Z,96307.44
2023-01-19T05:50:23.170Z,96312.66
2023-01-19T05:52:49.904Z,96309.09
2023-01-19T05:55:16.524Z,96318.59
2023-01-19T05:57:43.335Z,96321.19
2023-01-19T06:00:11.881Z,96321.66
2023-01-19T06:02:39.577Z,96323.44
2023-01-19T06:05:06.342Z,96334.50
2023-01-19T06:07:32.856Z,96327.88
2023-01-19T06:09:59.320Z,96339.44
2023-01-19T06:12:25.722Z,96336.13
2023-01-19T06:14:52.141Z,96337.63
2023-01-19T06:17:19.105Z,96339.56
2023-01-19T06:19:45.546Z,96340.22
2023-01-19T06:22:12.200Z,96339.38
2023-01-19T06:24:38.669Z,96341.00
2023-01-19T06:27:06.476Z,96343.75
2023-01-19T06:29:33.011Z,96339.66
2023-01-19T06:31:59.442Z,96335.72
2023-01-19T06:34:28.945Z,96344.72
2023-01-19T06:36:58.949Z,96341.97
2023-01-19T06:39:25.465Z,96351.72
2023-01-19T06:41:51.876Z,96349.06
2023-01-19T06:44:18.327Z,96347.81
2023-01-19T06:46:44.821Z,96349.38
2023-01-19T06:49:11.264Z,96352.47
2023-01-19T06:51:37.739Z,96352.59
2023-01-19T06:54:04.312Z,96354.59
2023-01-19T06:56:31.050Z,96360.75
2023-01-19T06:58:57.811Z,96358.41
2023-01-19T07:01:24.684Z,96353.59
2023-01-19T07:03:51.752Z,96356.94
2023-01-19T07:06:18.377Z,96354.38
2023-01-19T07:08:44.853Z,96360.94
2023-01-19T07:11:26.101Z,96352.91
2023-01-19T07:13:58.725Z,96348.88
2023-01-19T07:16:25.514Z,96346.22
2023-01-19T07:18:52.046Z,96353.03
2023-01-19T07:21:19.059Z,96352.34
2023-01-19T07:23:48.904Z,96349.03
2023-01-19T07:26:18.478Z,96350.78
2023-01-19T07:28:46.818Z,96353.88
2023-01-19T07:31:15.307Z,96367.03
2023-01-19T07:33:41.934Z,96364.81
2023-01-19T07:36:09.171Z,96368.06
2023-01-19T07:38:35.824Z,96366.50
2023-01-19T07:41:03.694Z,96361.38
2023-01-19T07:43:30.385Z,96363.50
2023-01-19T07:46:01.906Z,96361.22
2023-01-19T07:48:28.666Z,96363.91
2023-01-19T07:51:05.196Z,96364.63
2023-01-19T07:53:32.349Z,96364.19
2023-01-19T07:55:58.871Z,96367.50
2023-01-19T07:58:26.327Z,96377.34
2023-01-19T08:00:53.426Z,96376.81
2023-01-19T08:03:20.310Z,96380.75
2023-01-19T08:05:52.312Z,96384.19
2023-01-19T08:08:19.369Z,96387.50
2023-01-19T08:10:49.779Z,96391.78
2023-01-19T08:13:16.210Z,96398.00
2023-01-19T08:15:42.742Z,96389.44
2023-01-19T08:18:11.446Z,96396.59
2023-01-19T08:20:38.295Z,96397.88
2023-01-19T08:23:05.495Z,96406.38
2023-01-19T08:25:35.002Z,96386.78
2023-01-19T08:28:02.985Z,96384.69
2023-01-19T08:30:30.391Z,96387.81
2023-01-19T08:33:03.942Z,96383.50
2023-01-19T08:35:32.048Z,96390.75
2023-01-19T08:38:01.263Z,96395.56
2023-01-19T08:40:29.544Z,96394.16
2023-01-19T08:43:01.246Z,96393.78
2023-01-19T08:45:29.491Z,96396.31
2023-01-19T08:47:58.879Z,96400.41
2023-01-19T08:50:26.630Z,96404.13
2023-01-19T08:52:55.889Z,96403.94
2023-01-19T08:55:22.395Z,96404.31
2023-01-19T08:57:53.089Z,96404.25
2023-01-19T09:00:20.931Z,96407.00
2023-01-19T09:02:48.146Z,96404.56
2023-01-19T09:05:15.192Z,96406.81
2023-01-19T09:07:43.735Z,96408.28
2023-01-19T09:10:10.696Z,96405.44
2023-01-19T09:12:37.224Z,96414.00
2023-01-19T09:15:04.981Z,96416.22
2023-01-19T09:17:31.503Z,96415.25
2023-01-19T09:19:58.556Z,96416.88
2023-01-19T09:22:25.335Z,96414.69
2023-01-19T09:24:51.784Z,96412.09
2023-01-19T09:27:18.689Z,96414.75
2023-01-19T09:29:52.263Z,96424.00
2023-01-19T09:32:20.854Z,96409.38
2023-01-19T09:34:47.824Z,96420.94
2023-01-19T09:37:16.079Z,96412.66
2023-01-19T09:39:42.592Z,96411.66
2023-01-19T09:42:51.905Z,96418.66
2023-01-19T09:45:27.167Z,96413.66
2023-01-19T09:47:55.550Z,96414.84
2023-01-19T09:50:31.356Z,96415.94
2023-01-19T09:53:13.658Z,96418.16
2023-01-19T09:55:42.609Z,96420.84
2023-01-19T09:58:16.283Z,96411.50
2023-01-19T10:00:50.807Z,96413.75
2023-01-19T10:03:17.768Z,96418.25
2023-01-19T10:05:55.514Z,96415.81
2023-01-19T10:08:29.212Z,96415.81
2023-01-19T10:10:57.801Z,96424.84
2023-01-19T10:13:45.007Z,96412.38
2023-01-19T10:17:26.937Z,96415.81
2023-01-19T10:19:57.445Z,96418.28
2023-01-19T10:22:26.890Z,96408.69
2023-01-19T10:24:57.379Z,96404.41
2023-01-19T10:27:28.580Z,96410.94
2023-01-19T10:29:55.241Z,96403.97
2023-01-19T10:32:36.033Z,96406.59
2023-01-19T10:35:26.364Z,96408.84
2023-01-19T10:38:00.075Z,96405.19
2023-01-19T10:40:36.267Z,96405.63
2023-01-19T10:43:36.126Z,96411.78
2023-01-19T10:46:06.527Z,96414.72
2023-01-19T10:48:40.020Z,96404.28
2023-01-19T10:51:08.305Z,96414.06
2023-01-19T10:53:35.240Z,96417.91
2023-01-19T10:56:22.304Z,96420.09
2023-01-19T10:58:48.770Z,96422.41
2023-01-19T11:01:24.622Z,96421.66
2023-01-19T11:03:53.430Z,96413.94
2023-01-19T11:06:20.020Z,96413.56
2023-01-19T11:08:48.633Z,96408.72
2023-01-19T11:11:15.049Z,96407.09
2023-01-19T11:13:42.626Z,96401.34
2023-01-19T11:16:17.304Z,96400.72
2023-01-19T11:18:45.510Z,96409.94
2023-01-19T11:21:15.425Z,96409.53
2023-01-19T11:23:46.209Z,96407.47
2023-01-19T11:26:25.016Z,96402.34
2023-01-19T11:28:54.651Z,96405.22
2023-01-19T11:31:31.136Z,96407.91
2023-01-19T11:34:03.040Z,96405.00
2023-01-19T11:36:32.082Z,96395.81
2023-01-19T11:39:20.508Z,96403.34
2023-01-19T11:41:50.729Z,96398.47
2023-01-19T11:44:19.960Z,96394.78
2023-01-19T11:46:50.175Z,96396.03
2023-01-19T11:49:25.718Z,96401.75
2023-01-19T11:52:12.837Z,96398.25
2023-01-19T11:54:49.751Z,96406.66
2023-01-19T11:57:20.763Z,96399.47
2023-01-19T11:59:49.739Z,96400.91
2023-01-19T12:02:28.297Z,96397.63
2023-01-19T12:04:59.874Z,96402.34
2023-01-19T12:07:32.394Z,96406.22
2023-01-19T12:10:14.783Z,96404.00
2023-01-19T12:12:42.111Z,96399.47
2023-01-19T12:15:24.811Z,96406.22
2023-01-19T12:17:57.729Z,96404.19
2023-01-19T12:20:30.901Z,96407.66
2023-01-19T12:23:08.900Z,96408.47
2023-01-19T12:26:06.308Z,96412.59
2023-01-19T12:28:36.993Z,96405.22
2023-01-19T12:31:04.043Z,96403.38
2023-01-19T12:33:40.237Z,96398.25
2023-01-19T12:36:11.385Z,96411.38
2023-01-19T12:38:44.938Z,96407.88
2023-01-19T12:41:23.844Z,96407.06
2023-01-19T12:44:12.057Z,96413.22
2023-01-19T12:46:54.520Z,96410.53
2023-01-19T12:49:26.327Z,96412.59
2023-01-19T12:51:54.624Z,96415.25
2023-01-19T12:54:31.672Z,96417.91
2023-01-19T12:57:17.373Z,96421.56
2023-01-19T12:59:44.313Z,96422.00
2023-01-19T13:02:20.087Z,96416.69
2023-01-19T13:05:20.048Z,96419.75
2023-01-19T13:08:01.783Z,96414.03
2023-01-19T13:10:59.217Z,96416.25
2023-01-19T13:13:43.799Z,96411.56
2023-01-19T13:16:19.752Z,96413.19
2023-01-19T13:18:47.848Z,96413.81
2023-01-19T13:21:29.910Z,96417.06
2023-01-19T13:23:59.026Z,96418.94
2023-01-19T13:26:28.737Z,96421.59
2023-01-19T13:28:58.420Z,96422.59
2023-01-19T13:31:25.859Z,96424.88
2023-01-19T13:33:55.443Z,96419.75
2023-01-19T13:36:29.588Z,96412.38
2023-01-19T13:38:59.478Z,96417.06
2023-01-19T13:41:29.460Z,96418.53
2023-01-19T13:44:02.896Z,96422.19
2023-01-19T13:46:30.967Z,96425.69
2023-01-19T13:49:01.067Z,96429.38
2023-01-19T13:51:27.521Z,96426.91
2023-01-19T13:53:55.791Z,96432.44
2023-01-19T13:56:24.499Z,96424.47
2023-01-19T13:59:02.191Z,96433.88
2023-01-19T14:01:30.272Z,96436.94
2023-01-19T14:03:57.326Z,96432.63
2023-01-19T14:06:39.469Z,96438.34
2023-01-19T14:09:16.478Z,96438.75
2023-01-19T14:11:44.685Z,96436.91
2023-01-19T14:14:27.912Z,96436.72
2023-01-19T14:16:54.771Z,96438.94
2023-01-19T14:19:21.740Z,96435.06
2023-01-19T14:21:58.989Z,96441.78
2023-01-19T14:24:29.605Z,96436.91
2023-01-19T14:27:18.139Z,96438.34
2023-01-19T14:29:47.311Z,96443.06
2023-01-19T14:32:20.698Z,96436.72
2023-01-19T14:35:04.411Z,96436.72
2023-01-19T14:37:37.051Z,96426.09
2023-01-19T14:40:13.148Z,96433.25
2023-01-19T14:42:42.469Z,96430.97
2023-01-19T14:45:21.841Z,96437.13
2023-01-19T14:47:57.593Z,96435.09
2023-01-19T14:50:28.093Z,96435.09
2023-01-19T14:52:58.905Z,96426.88
2023-01-19T14:55:37.917Z,96428.13
2023-01-19T14:58:13.190Z,96433.25
2023-01-19T15:00:40.748Z,96430.16
2023-01-19T15:03:09.786Z,96441.19
2023-01-19T15:05:42.676Z,96436.72
2023-01-19T15:08:19.358Z,96438.94
2023-01-19T15:10:46.343Z,96446.53
2023-01-19T15:13:19.313Z,96450.63
2023-01-19T15:15:46.278Z,96448.81
2023-01-19T15:18:19.404Z,96442.03
2023-01-19T15:20:46.069Z,96444.31
2023-01-19T15:23:12.874Z,96443.28
2023-01-19T15:25:39.659Z,96440.63
2023-01-19T15:28:14.543Z,96438.34
2023-01-19T15:30:41.137Z,96445.09
2023-01-19T15:33:32.309Z,96439.59
2023-01-19T15:35:58.937Z,96437.97
2023-01-19T15:38:26.527Z,96433.03
2023-01-19T15:40:53.140Z,96434.91
2023-01-19T15:43:20.974Z,96437.56
2023-01-19T15:45:57.348Z,96436.72
2023-01-19T15:48:23.950Z,96439.59
2023-01-19T15:50:50.453Z,96441.41
2023-01-19T15:53:19.041Z,96442.03
2023-01-19T15:55:49.552Z,96435.69
2023-01-19T15:58:16.537Z,96439.19
2023-01-19T16:00:43.165Z,96435.50
2023-01-19T16:03:10.636Z,96434.84
2023-01-19T16:05:43.053Z,96435.69
2023-01-19T16:08:13.364Z,96435.47
2023-01-19T16:10:41.631Z,96436.53
2023-01-19T16:13:10.182Z,96434.84
2023-01-19T16:15:37.986Z,96441.00
2023-01-19T16:18:05.404Z,96433.44
2023-01-19T16:20:32.104Z,96439.97
2023-01-19T16:23:09.596Z,96436.09
2023-01-19T16:25:40.605Z,96434.63
2023-01-19T16:28:08.126Z,96435.38
2023-01-19T16:30:34.580Z,96437.81
2023-01-19T16:33:01.059Z,96438.16
2023-01-19T16:35:27.526Z,96437.97
2023-01-19T16:37:53.996Z,96440.03
2023-01-19T16:40:20.623Z,96444.31
2023-01-19T16:42:47.352Z,96443.66
2023-01-19T16:45:13.849Z,96450.00
2023-01-19T16:47:40.468Z,96448.00
2023-01-19T16:50:10.549Z,96449.19
2023-01-19T16:52:37.259Z,96442.97
2023-01-19T16:55:08.803Z,96441.47
2023-01-19T16:57:36.919Z,96452.19
2023-01-19T17:00:05.515Z,96448.63
2023-01-19T17:02:32.029Z,96443.22
2023-01-19T17:05:00.225Z,96451.88
2023-01-19T17:07:28.001Z,96446.81
2023-01-19T17:09:54.419Z,96459.03
2023-01-19T17:12:20.922Z,96450.72
2023-01-19T17:14:47.576Z,96451.41
2023-01-19T17:17:14.231Z,96449.97
2023-01-19T17:19:40.705Z,96451.69
2023-01-19T17:22:07.151Z,96450.97
2023-01-19T17:24:33.608Z,96455.63
2023-01-19T17:27:00.095Z,96448.41
2023-01-19T17:29:26.629Z,96449.34
2023-01-19T17:31:53.373Z,96450.72
2023-01-19T17:34:19.854Z,96454.16
2023-01-19T17:36:46.388Z,96451.34
2023-01-19T17:39:14.704Z,96449.88
2023-01-19T17:41:41.431Z,96456.81
2023-01-19T17:44:09.210Z,96459.25
2023-01-19T17:46:37.741Z,96458.50
2023-01-19T17:49:06.861Z,96455.38
2023-01-19T17:51:33.716Z,96454.28
2023-01-19T17:54:00.376Z,96460.38
2023-01-19T17:56:30.163Z,96464.25
2023-01-19T17:58:58.078Z,96461.78
2023-01-19T18:01:37.028Z,96458.66
2023-01-19T18:04:03.679Z,96466.47
2023-01-19T18:06:30.331Z,96472.78
2023-01-19T18:08:58.327Z,96469.09
2023-01-19T18:11:26.196Z,96472.56
2023-01-19T18:13:52.953Z,96472.63
2023-01-19T18:16:24.516Z,96471.16
2023-01-19T18:18:53.572Z,96471.56
2023-01-19T18:21:21.735Z,96475.84
2023-01-19T18:23:49.594Z,96481.19
2023-01-19T18:26:21.959Z,96472.66
2023-01-19T18:28:49.377Z,96478.06
2023-01-19T18:31:18.290Z,96471.16
2023-01-19T18:33:45.368Z,96474.97
2023-01-19T18:36:11.802Z,96478.50
2023-01-19T18:38:38.938Z,96477.19
2023-01-19T18:41:12.301Z,96485.25
2023-01-19T18:43:39.626Z,96471.38
2023-01-19T18:46:06.890Z,96479.56
2023-01-19T18:48:33.781Z,96478.19
2023-01-19T18:51:03.404Z,96481.03
2023-01-19T18:53:31.601Z,96483.78
2023-01-19T18:56:02.013Z,96480.41
2023-01-19T18:58:29.719Z,96483.38
2023-01-19T19:00:56.705Z,96484.16
2023-01-19T19:03:23.644Z,96483.34
2023-01-19T19:05:50.473Z,96493.41
2023-01-19T19:08:17.121Z,96487.59
2023-01-19T19:10:43.841Z,96489.25
2023-01-19T19:13:14.970Z,96489.59
2023-01-19T19:15:41.496Z,96483.38
2023-01-19T19:18:13.037Z,96488.38
2023-01-19T19:20:40.054Z,96487.97
2023-01-19T19:23:06.554Z,96476.28
2023-01-19T19:25:33.600Z,96481.56
2023-01-19T19:28:00.100Z,96480.72
2023-01-19T19:30:26.753Z,96463.25
2023-01-19T19:32:55.858Z,96472.19
2023-01-19T19:35:25.803Z,96470.03
2023-01-19T19:37:57.287Z,96468.84
2023-01-19T19:40:24.800Z,96470.69
2023-01-19T19:42:51.368Z,96461.56
2023-01-19T19:45:17.878Z,96472.31
2023-01-19T19:47:44.590Z,96477.94
2023-01-19T19:50:11.963Z,96474.84
2023-01-19T19:52:42.425Z,96468.72
2023-01-19T19:55:10.359Z,96470.91
2023-01-19T19:57:36.961Z,96463.91
2023-01-19T20:00:05.109Z,96470.41
2023-01-19T20:02:36.739Z,96472.53
2023-01-19T20:05:03.880Z,96474.53
2023-01-19T20:07:30.452Z,96479.44
2023-01-19T20:09:57.010Z,96489.75
2023-01-19T20:12:23.463Z,96489.47
2023-01-19T20:14:49.986Z,96490.16
2023-01-19T20:17:16.655Z,96485.28
2023-01-19T20:19:43.713Z,96485.56
2023-01-19T20:22:10.145Z,96485.97
2023-01-19T20:24:36.619Z,96480.06
2023-01-19T20:27:03.114Z,96484.53
2023-01-19T20:29:30.575Z,96479.13
2023-01-19T20:31:57.122Z,96486.78
2023-01-19T20:34:28.157Z,96489.63
2023-01-19T20:36:55.217Z,96491.16
2023-01-19T20:39:23.388Z,96493.56
2023-01-19T20:41:51.337Z,96494.69
2023-01-19T20:44:23.106Z,96494.06
2023-01-19T20:46:49.688Z,96500.34
2023-01-19T20:49:16.563Z,96499.47
2023-01-19T20:51:43.383Z,96501.72
2023-01-19T20:54:15.641Z,96499.63
2023-01-19T20:56:42.287Z,96503.13
2023-01-19T20:59:12.707Z,96505.59
2023-01-19T21:01:40.059Z,96511.94
2023-01-19T21:04:07.001Z,96511.03
2023-01-19T21:06:34.446Z,96522.28
2023-01-19T21:09:01.174Z,96517.00
2023-01-19T21:11:27.793Z,96521.66
2023-01-19T21:13:56.824Z,96519.00
2023-01-19T21:16:28.398Z,96522.09
2023-01-19T21:18:55.080Z,96524.94
2023-01-19T21:21:30.411Z,96533.59
2023-01-19T21:23:59.718Z,96532.97
2023-01-19T21:26:26.442Z,96530.16
2023-01-19T21:28:52.873Z,96526.56
2023-01-19T21:31:21.310Z,96524.66
2023-01-19T21:33:49.083Z,96527.59
2023-01-19T21:36:15.720Z,96526.16
2023-01-19T21:38:42.204Z,96524.94
2023-01-19T21:41:12.369Z,96526.22
2023-01-19T21:43:41.594Z,96528.56
2023-01-19T21:46:19.897Z,96525.47
2023-01-19T21:48:47.235Z,96524.13
2023-01-19T21:51:14.602Z,96528.25
2023-01-19T21:53:41.751Z,96537.38
2023-01-19T21:56:09.846Z,96540.03
2023-01-19T21:58:36.864Z,96544.22
2023-01-19T22:01:07.149Z,96545.88
2023-01-19T22:03:33.705Z,96545.75
2023-01-19T22:06:05.318Z,96546.22
2023-01-19T22:08:32.202Z,96556.81
2023-01-19T22:11:09.769Z,96562.47
2023-01-19T22:13:38.518Z,96563.66
2023-01-19T22:16:10.834Z,96568.94
2023-01-19T22:18:41.630Z,96561.44
2023-01-19T22:21:20.307Z,96562.38
2023-01-19T22:23:55.681Z,96570.47
2023-01-19T22:26:22.460Z,96573.22
2023-01-19T22:28:52.912Z,96572.13
2023-01-19T22:31:19.456Z,96580.97
2023-01-19T22:33:46.085Z,96581.84
2023-01-19T22:36:27.474Z,96588.38
2023-01-19T22:38:59.358Z,96579.91
2023-01-19T22:41:28.615Z,96585.50
2023-01-19T22:43:58.688Z,96588.84
2023-01-19T22:46:27.901Z,96586.47
2023-01-19T22:48:55.057Z,96584.03
2023-01-19T22:51:23.935Z,96579.66
2023-01-19T22:53:51.325Z,96584.03
2023-01-19T22:56:26.419Z,96583.69
2023-01-19T22:58:53.690Z,96585.72
2023-01-19T23:01:23.407Z,96592.72
2023-01-19T23:03:50.318Z,96588.28
2023-01-19T23:06:20.178Z,96581.63
2023-01-19T23:08:47.305Z,96586.06
2023-01-19T23:11:22.567Z,96584.59
2023-01-19T23:13:49.504Z,96584.84
2023-01-19T23:16:17.087Z,96601.50
2023-01-19T23:18:44.031Z,96595.50
2023-01-19T23:21:13.268Z,96597.88
2023-01-19T23:23:40.236Z,96595.28
2023-01-19T23:26:08.226Z,96598.06
2023-01-19T23:28:36.571Z,96595.59
2023-01-19T23:31:17.697Z,96594.59
2023-01-19T23:33:44.872Z,96599.69
2023-01-19T23:36:12.518Z,96593.06
2023-01-19T23:38:39.789Z,96598.00
2023-01-19T23:41:06.677Z,96594.06
2023-01-19T23:43:33.572Z,96607.56
2023-01-19T23:46:04.621Z,96601.41
2023-01-19T23:48:31.231Z,96609.69
2023-01-19T23:50:57.724Z,96600.66
2023-01-19T23:53:24.307Z,96600.94
2023-01-19T23:55:50.740Z,96596.00
2023-01-19T23:58:17.251Z,96604.50
